Time;durP1;ratioP1;P1;durP2;ratioP2;P2;SDS_P1;SDS_P2;PMS_P1;PMS_P2;Temp;Humidity;BMP_temperature;BMP_pressure;BME280_temperature;BME280_humidity;BME280_pressure;Samples;Min_cycle;Max_cycle;Signal;HPM_P1;HPM_P2
2022/04/05 00:01:36;;;;;;;14.13;9.88;;;;;;;3.97;66.50;99840.81;5529140;32;34435;-85
2022/04/05 00:04:39;;;;;;;18.23;10.25;;;;;;;3.85;67.00;99845.53;5528015;32;33677;-86
2022/04/05 00:07:42;;;;;;;13.10;9.80;;;;;;;3.76;67.85;99845.78;5527924;32;34588;-85
2022/04/05 00:10:45;;;;;;;14.20;10.23;;;;;;;3.75;68.22;99841.47;5527798;32;34350;-85
2022/04/05 00:13:47;;;;;;;14.75;10.38;;;;;;;3.64;68.94;99836.53;5528042;32;35951;-85
2022/04/05 00:16:50;;;;;;;14.68;10.18;;;;;;;3.66;69.03;99834.72;5527739;32;33858;-85
2022/04/05 00:19:53;;;;;;;15.68;10.25;;;;;;;3.62;69.57;99840.97;5527871;32;33831;-85
2022/04/05 00:22:58;;;;;;;13.73;10.07;;;;;;;3.68;69.53;99835.56;5527886;32;33855;-86
2022/04/05 00:26:01;;;;;;;15.15;9.88;;;;;;;3.59;70.17;99836.69;5528361;32;33927;-85
2022/04/05 00:29:04;;;;;;;14.57;10.63;;;;;;;3.66;69.99;99833.87;5530050;32;34051;-85
2022/04/05 00:32:06;;;;;;;14.48;9.73;;;;;;;3.63;70.27;99829.59;5530183;32;34130;-85
2022/04/05 00:35:10;;;;;;;13.50;9.98;;;;;;;3.52;70.83;99832.50;5530012;32;33760;-85
2022/04/05 00:38:14;;;;;;;14.82;9.88;;;;;;;3.48;71.26;99834.34;5529833;32;33746;-85
2022/04/05 00:41:16;;;;;;;13.25;9.63;;;;;;;3.43;71.83;99835.41;5529796;32;33865;-85
2022/04/05 00:44:19;;;;;;;14.60;10.70;;;;;;;3.53;71.42;99829.00;5529793;32;34661;-86
2022/04/05 00:47:23;;;;;;;15.52;10.77;;;;;;;3.38;72.60;99832.91;5529836;32;34521;-85
2022/04/05 00:50:27;;;;;;;13.82;10.10;;;;;;;3.34;72.83;99832.16;5534597;32;33663;-85
2022/04/05 00:53:31;;;;;;;15.18;10.23;;;;;;;3.35;73.33;99830.38;5530151;32;33786;-85
2022/04/05 00:56:36;;;;;;;13.93;9.68;;;;;;;3.33;73.78;99826.94;5534887;32;34338;-85
2022/04/05 00:59:43;;;;;;;14.82;9.77;;;;;;;3.47;73.35;99814.28;5542152;32;34504;-85
2022/04/05 01:02:50;;;;;;;16.00;10.48;;;;;;;3.58;72.50;99811.34;5530165;32;33988;-85
2022/04/05 01:05:53;;;;;;;13.93;9.75;;;;;;;3.53;73.02;99821.13;5530121;32;33659;-85
2022/04/05 01:08:57;;;;;;;16.25;10.20;;;;;;;3.49;73.28;99822.12;5530798;32;34435;-85
2022/04/05 01:12:00;;;;;;;13.38;10.15;;;;;;;3.52;73.49;99819.38;5533127;32;34011;-85
2022/04/05 01:15:03;;;;;;;13.77;9.68;;;;;;;3.60;73.37;99819.16;5530071;32;33592;-85
2022/04/05 01:18:06;;;;;;;15.40;10.73;;;;;;;3.71;73.77;99806.59;5529540;32;34003;-85
2022/04/05 01:21:09;;;;;;;14.87;10.43;;;;;;;3.58;73.95;99813.13;5529866;32;34689;-85
2022/04/05 01:24:13;;;;;;;13.48;9.90;;;;;;;3.48;73.59;99816.00;5529375;32;33545;-85
2022/04/05 01:27:19;;;;;;;14.10;10.20;;;;;;;3.46;74.19;99814.31;5529633;32;33823;-84
2022/04/05 01:30:22;;;;;;;15.30;10.80;;;;;;;3.51;74.21;99817.66;5529318;32;34524;-85
2022/04/05 01:33:25;;;;;;;15.88;10.57;;;;;;;3.51;73.80;99812.44;5529482;32;33692;-85
2022/04/05 01:36:28;;;;;;;15.02;10.05;;;;;;;3.48;74.28;99812.53;5529818;32;34233;-85
2022/04/05 01:39:33;;;;;;;20.42;11.38;;;;;;;3.47;74.83;99816.91;5533958;32;35213;-85
2022/04/05 01:42:37;;;;;;;17.15;12.20;;;;;;;3.44;74.46;99803.91;5529917;32;33983;-85
2022/04/05 01:45:43;;;;;;;16.20;11.73;;;;;;;3.46;74.20;99801.22;5529614;32;33860;-85
2022/04/05 01:48:46;;;;;;;18.55;11.85;;;;;;;3.35;74.98;99806.78;5529838;32;33780;-90
2022/04/05 01:51:50;;;;;;;16.70;11.85;;;;;;;3.43;nan;99802.19;5529487;32;34097;-89
2022/04/05 01:54:53;;;;;;;18.10;11.82;;;;;;;3.23;75.69;99811.47;5529133;32;34315;-90
2022/04/05 01:57:56;;;;;;;18.15;12.48;;;;;;;3.18;76.71;99802.87;5529033;32;34045;-86
2022/04/05 02:01:01;;;;;;;15.65;11.65;;;;;;;3.15;76.72;99795.09;5529238;32;35045;-85
2022/04/05 02:04:05;;;;;;;18.87;12.68;;;;;;;3.03;77.67;99798.94;5529437;32;34205;-85
2022/04/05 02:07:18;;;;;;;18.60;12.35;;;;;;;2.92;78.12;99787.91;5529291;32;34772;-85
2022/04/05 02:10:22;;;;;;;17.35;12.73;;;;;;;2.91;78.37;99784.41;5528977;32;33795;-85
2022/04/05 02:13:24;;;;;;;16.87;12.07;;;;;;;2.82;78.75;99788.13;5529015;32;34861;-86
2022/04/05 02:16:28;;;;;;;19.10;12.25;;;;;;;2.78;79.06;99780.41;5529010;32;33979;-85
2022/04/05 02:19:31;;;;;;;19.33;11.82;;;;;;;2.78;79.46;99791.75;5529068;32;34943;-85
2022/04/05 02:22:34;;;;;;;16.83;12.02;;;;;;;2.79;80.08;99780.37;5529023;32;34306;-85
2022/04/05 02:25:37;;;;;;;16.75;11.85;;;;;;;2.88;79.32;99781.88;5528916;32;34297;-85
2022/04/05 02:28:41;;;;;;;19.08;12.65;;;;;;;2.88;79.73;99776.66;5529246;32;33663;-85
2022/04/05 02:31:44;;;;;;;19.40;12.43;;;;;;;2.85;79.83;99774.09;5532476;32;34066;-86
2022/04/05 02:34:48;;;;;;;16.05;12.10;;;;;;;2.80;80.22;99766.38;5529206;32;33869;-85
2022/04/05 02:37:50;;;;;;;20.48;12.95;;;;;;;2.88;79.81;99771.41;5529033;32;33840;-85
2022/04/05 02:40:57;;;;;;;19.05;12.37;;;;;;;2.80;80.27;99765.50;5532426;32;34551;-85
2022/04/05 02:44:01;;;;;;;16.83;11.70;;;;;;;2.86;80.19;99764.47;5539744;32;34022;-85
2022/04/05 02:47:07;;;;;;;19.75;13.40;;;;;;;2.91;79.85;99779.16;5531332;32;34768;-85
2022/04/05 02:50:10;;;;;;;20.02;12.80;;;;;;;2.78;80.10;99762.94;5530205;32;34035;-85
2022/04/05 02:53:14;;;;;;;18.12;12.10;;;;;;;2.76;80.36;99759.47;5529146;32;34425;-85
2022/04/05 02:56:18;;;;;;;18.95;12.50;;;;;;;2.79;80.39;99746.31;5529572;32;34756;-85
2022/04/05 02:59:22;;;;;;;22.67;13.10;;;;;;;2.76;80.74;99745.53;5533988;32;34090;-85
2022/04/05 03:02:25;;;;;;;21.77;13.20;;;;;;;2.80;81.34;99758.50;5533239;32;33745;-85
2022/04/05 03:05:28;;;;;;;18.15;12.25;;;;;;;2.80;81.61;99753.28;5529728;32;34162;-85
2022/04/05 03:08:31;;;;;;;18.70;12.25;;;;;;;2.85;81.53;99744.44;5529965;32;34835;-85
2022/04/05 03:11:35;;;;;;;18.87;12.85;;;;;;;2.95;80.37;99744.13;5530493;32;34290;-85
2022/04/05 03:14:39;;;;;;;16.85;11.57;;;;;;;3.03;80.20;99743.03;5530299;32;34185;-84
2022/04/05 03:17:45;;;;;;;16.60;11.70;;;;;;;3.13;79.11;99744.50;5532441;32;36070;-85
2022/04/05 03:20:48;;;;;;;20.85;12.95;;;;;;;3.15;79.02;99741.81;5532430;32;33670;-85
2022/04/05 03:23:51;;;;;;;17.00;11.50;;;;;;;3.10;79.85;99736.72;5528192;32;34102;-85
2022/04/05 03:26:54;;;;;;;16.17;11.18;;;;;;;3.17;78.52;99733.00;5528378;32;33876;-85
2022/04/05 03:30:00;;;;;;;16.73;11.68;;;;;;;3.19;78.74;99738.22;5528822;32;35172;-85
2022/04/05 03:33:04;;;;;;;18.55;11.55;;;;;;;3.31;78.01;99732.59;5529639;32;33989;-85
2022/04/05 03:36:07;;;;;;;16.45;11.38;;;;;;;3.30;77.82;99720.41;5529566;32;34257;-85
2022/04/05 03:39:13;;;;;;;16.12;11.57;;;;;;;3.34;77.51;99715.91;5527971;32;34667;-85
2022/04/05 03:42:17;;;;;;;16.60;11.02;;;;;;;3.30;77.53;99712.53;5528353;32;33692;-85
2022/04/05 03:45:21;;;;;;;17.73;11.77;;;;;;;3.30;77.37;99715.16;5528318;32;33517;-89
2022/04/05 03:48:26;;;;;;;16.45;11.85;;;;;;;3.34;77.71;99715.91;5528289;32;34961;-89
2022/04/05 03:51:29;;;;;;;16.30;11.45;;;;;;;3.40;77.46;99707.00;5527921;32;33925;-90
2022/04/05 03:54:32;;;;;;;15.60;11.05;;;;;;;3.52;77.07;99708.41;5528184;32;33922;-86
2022/04/05 03:57:36;;;;;;;15.88;10.93;;;;;;;3.59;77.10;99704.66;5527760;32;34217;-86
2022/04/05 04:00:40;;;;;;;16.77;11.35;;;;;;;3.61;76.83;99708.97;5514122;32;32846;-85
2022/04/05 04:03:43;;;;;;;15.80;11.23;;;;;;;3.56;76.67;99716.12;5528573;32;34715;-85
2022/04/05 04:06:46;;;;;;;18.87;12.45;;;;;;;3.55;76.69;99716.16;5526566;32;33655;-85
2022/04/05 04:09:51;;;;;;;19.02;12.15;;;;;;;3.63;77.94;99716.78;5528708;32;216471;-86
2022/04/05 04:12:54;;;;;;;20.95;12.93;;;;;;;3.60;78.30;99711.63;5529250;32;33971;-85
2022/04/05 04:15:58;;;;;;;19.67;12.00;;;;;;;3.48;78.72;99711.09;5527908;32;33954;-85
2022/04/05 04:19:02;;;;;;;17.05;11.05;;;;;;;3.45;78.98;99711.22;5527987;32;34434;-85
2022/04/05 04:22:05;;;;;;;16.40;12.23;;;;;;;3.46;79.32;99720.78;5527672;32;33902;-85
2022/04/05 04:25:09;;;;;;;20.62;11.75;;;;;;;3.53;79.83;99710.09;5527412;32;34372;-85
2022/04/05 04:28:12;;;;;;;18.90;12.27;;;;;;;3.64;78.89;99708.00;5527308;32;34462;-86
2022/04/05 04:31:15;;;;;;;19.30;12.43;;;;;;;3.62;77.72;99709.84;5527437;32;33889;-85
2022/04/05 04:34:18;;;;;;;19.87;12.15;;;;;;;3.74;78.05;99709.44;5527469;32;34344;-86
2022/04/05 04:37:20;;;;;;;18.55;11.68;;;;;;;3.76;78.17;99714.62;5527250;32;33925;-85
2022/04/05 04:40:23;;;;;;;19.85;12.68;;;;;;;3.87;77.30;99706.41;5527560;32;33885;-86
2022/04/05 04:43:27;;;;;;;18.40;12.73;;;;;;;3.87;77.12;99709.88;5528439;32;33968;-85
2022/04/05 04:46:36;;;;;;;23.45;13.45;;;;;;;3.87;77.21;99715.12;5527359;32;33912;-85
2022/04/05 04:49:38;;;;;;;22.02;13.55;;;;;;;3.95;77.10;99719.25;5527986;32;33855;-85
2022/04/05 04:52:41;;;;;;;20.92;13.82;;;;;;;3.81;78.09;99715.34;5527449;32;34948;-85
2022/04/05 04:55:44;;;;;;;21.50;14.07;;;;;;;3.82;78.07;99719.66;5528656;32;33953;-85
2022/04/05 04:59:06;;;;;;;20.40;14.07;;;;;;;3.84;78.40;99712.63;5528650;32;34488;-85
2022/04/05 05:02:09;;;;;;;20.88;14.38;;;;;;;3.98;78.29;99721.81;5531791;32;33919;-85
2022/04/05 05:05:15;;;;;;;20.62;14.40;;;;;;;4.10;77.61;99715.28;5526174;32;34802;-85
2022/04/05 05:08:18;;;;;;;21.65;14.02;;;;;;;4.13;77.36;99717.81;5526966;32;35124;-85
2022/04/05 05:11:20;;;;;;;19.30;13.88;;;;;;;4.31;76.82;99717.19;5526691;32;34529;-85
2022/04/05 05:14:23;;;;;;;24.02;14.52;;;;;;;4.37;76.18;99723.97;5528224;32;34582;-85
2022/04/05 05:17:26;;;;;;;23.58;14.35;;;;;;;4.39;75.59;99723.94;5529258;32;32508;-85
2022/04/05 05:20:29;;;;;;;21.12;14.30;;;;;;;4.47;75.29;99711.37;5529231;32;35047;-85
2022/04/05 05:23:31;;;;;;;20.55;14.35;;;;;;;4.49;75.25;99720.09;5529529;32;34452;-85
2022/04/05 05:26:34;;;;;;;19.70;13.70;;;;;;;4.49;75.25;99717.47;5529680;32;34077;-85
2022/04/05 05:29:37;;;;;;;21.50;13.40;;;;;;;4.84;73.85;99714.47;5529590;32;33818;-86
2022/04/05 05:32:45;;;;;;;20.55;13.65;;;;;;;4.99;73.81;99716.53;5528668;32;34516;-85
2022/04/05 05:35:48;;;;;;;20.12;14.27;;;;;;;5.25;71.86;99705.94;5529965;32;34462;-85
2022/04/05 05:38:50;;;;;;;22.77;14.02;;;;;;;4.70;74.03;99713.22;5529183;32;34564;-86
2022/04/05 05:41:54;;;;;;;21.20;14.07;;;;;;;4.71;73.71;99706.16;5563252;32;34592;-87
2022/04/05 05:44:57;;;;;;;20.30;13.90;;;;;;;4.58;74.33;99711.03;5562944;32;34105;-89
2022/04/05 05:48:00;;;;;;;20.30;14.13;;;;;;;4.36;74.90;99714.41;5555167;32;34465;-90
2022/04/05 05:51:02;;;;;;;22.98;13.82;;;;;;;4.34;74.93;99710.97;5554319;32;33920;-89
2022/04/05 05:54:05;;;;;;;25.30;14.82;;;;;;;4.55;74.48;99721.63;5549343;32;35297;-86
2022/04/05 05:57:08;;;;;;;22.48;14.13;;;;;;;4.51;74.80;99715.62;5547658;32;33805;-86
2022/04/05 06:00:17;;;;;;;21.42;13.85;;;;;;;4.69;73.66;99731.66;5530505;32;33914;-85
2022/04/05 06:03:20;;;;;;;23.05;13.95;;;;;;;4.97;72.37;99725.38;5558363;32;34503;-85
2022/04/05 06:06:23;;;;;;;22.35;13.60;;;;;;;4.98;72.79;99737.62;5548950;32;34961;-87
2022/04/05 06:09:26;;;;;;;20.02;13.57;;;;;;;5.18;71.63;99733.41;5548898;32;34273;-88
2022/04/05 06:12:29;;;;;;;18.70;12.77;;;;;;;5.64;70.11;99730.78;5549543;32;34056;-88
2022/04/05 06:15:32;;;;;;;22.35;14.02;;;;;;;6.02;68.57;99738.00;5548852;32;35131;-87
2022/04/05 06:18:35;;;;;;;19.42;13.50;;;;;;;6.18;67.35;99741.78;5548740;32;34345;-87
2022/04/05 06:21:38;;;;;;;20.30;12.30;;;;;;;6.81;65.31;99744.41;5550095;32;33886;-88
2022/04/05 06:24:40;;;;;;;17.08;11.48;;;;;;;7.33;62.07;99738.53;5549080;32;33913;-87
2022/04/05 06:27:44;;;;;;;16.25;11.80;;;;;;;7.53;61.20;99732.34;5548654;32;33788;-87
2022/04/05 06:30:47;;;;;;;19.65;11.35;;;;;;;8.22;58.88;99726.37;5537344;32;34481;-87
2022/04/05 06:33:53;;;;;;;13.05;9.35;;;;;;;8.88;56.63;99732.75;5540154;32;34028;-87
2022/04/05 06:36:55;;;;;;;11.88;9.27;;;;;;;9.09;53.55;99727.22;5537519;32;35118;-89
2022/04/05 06:39:58;;;;;;;13.07;9.60;;;;;;;8.96;54.02;99713.78;5559441;32;34069;-90
2022/04/05 06:43:02;;;;;;;13.70;9.70;;;;;;;8.77;55.03;99724.50;5575096;32;33855;-87
2022/04/05 06:46:05;;;;;;;15.60;10.20;;;;;;;8.43;55.37;99729.72;5570075;32;33695;-89
2022/04/05 06:49:07;;;;;;;22.62;11.85;;;;;;;8.07;56.74;99717.44;5556303;32;34442;-90
2022/04/05 06:52:10;;;;;;;19.02;12.90;;;;;;;8.06;57.90;99716.56;5541593;32;33929;-88
2022/04/05 06:55:13;;;;;;;18.00;12.32;;;;;;;8.04;58.80;99712.34;5531440;32;34625;-88
2022/04/05 06:58:16;;;;;;;18.77;11.80;;;;;;;8.54;57.03;99715.16;5540206;32;32916;-89
2022/04/05 07:01:18;;;;;;;19.10;11.98;;;;;;;8.55;56.61;99714.22;5548321;32;34449;-88
2022/04/05 07:04:22;;;;;;;18.10;11.75;;;;;;;8.72;56.38;99719.47;5544872;32;34804;-87
2022/04/05 07:07:24;;;;;;;18.40;11.77;;;;;;;8.86;55.29;99725.81;5547173;32;33677;-87
2022/04/05 07:10:27;;;;;;;18.10;11.93;;;;;;;8.90;54.98;99722.91;5532285;32;34013;-87
2022/04/05 07:13:33;;;;;;;18.45;12.63;;;;;;;8.63;55.93;99720.81;5550074;32;34865;-85
2022/04/05 07:16:36;;;;;;;18.50;12.02;;;;;;;8.74;56.08;99717.59;5545235;32;33783;-86
2022/04/05 07:19:39;;;;;;;16.55;11.70;;;;;;;9.12;54.98;99715.62;5554608;32;33607;-86
2022/04/05 07:22:48;;;;;;;16.98;11.50;;;;;;;10.33;52.08;99715.91;5545482;32;33760;-87
2022/04/05 07:25:51;;;;;;;17.55;10.50;;;;;;;13.26;44.38;99711.22;5561061;32;34317;-88
2022/04/05 07:28:54;;;;;;;13.02;9.95;;;;;;;15.58;37.68;99709.75;5602079;26;34668;-88
2022/04/05 07:32:01;;;;;;;11.68;9.32;;;;;;;15.96;36.06;99702.28;5601159;26;34170;-89
2022/04/05 07:35:05;;;;;;;10.88;8.98;;;;;;;16.36;35.13;99699.88;5530307;32;34301;-88
2022/04/05 07:38:08;;;;;;;12.35;8.68;;;;;;;17.69;33.60;99689.28;5542289;32;34417;-89
2022/04/05 07:41:11;;;;;;;11.23;8.60;;;;;;;16.74;33.32;99692.22;5552303;32;34583;-92
2022/04/05 07:44:13;;;;;;;11.38;8.55;;;;;;;16.09;35.63;99696.72;5532596;32;34720;-90
2022/04/05 07:47:17;;;;;;;12.60;8.55;;;;;;;15.93;35.11;99705.19;5549473;32;34181;-89
2022/04/05 07:50:20;;;;;;;13.57;7.93;;;;;;;15.42;35.93;99706.63;5551506;31;34947;-90
2022/04/05 07:53:23;;;;;;;9.02;8.13;;;;;;;13.86;38.86;99718.50;5542826;32;34573;-91
2022/04/05 07:56:30;;;;;;;10.45;8.20;;;;;;;13.10;40.24;99715.94;5618984;26;35109;-91
2022/04/05 07:59:47;;;;;;;10.70;9.00;;;;;;;12.21;42.89;99708.66;5611782;26;34033;31
2022/04/05 08:02:50;;;;;;;11.77;8.55;;;;;;;11.96;44.20;99705.81;5521659;32;33874;-92
2022/04/05 08:09:32;;;;;;;10.43;8.00;;;;;;;12.05;43.23;99701.75;843190;30;20374;-89
2022/04/05 08:12:43;;;;;;;11.73;8.13;;;;;;;11.53;45.02;99705.97;5531217;32;33642;-90
2022/04/05 08:15:46;;;;;;;9.40;8.25;;;;;;;11.72;44.31;99705.66;5545547;32;35037;-87
2022/04/05 08:18:49;;;;;;;14.60;8.13;;;;;;;11.93;44.81;99695.38;5530591;32;34652;-88
2022/04/05 08:25:37;;;;;;;11.90;7.25;;;;;;;12.56;42.74;99708.09;843269;30;20386;-87
2022/04/05 08:28:40;;;;;;;9.00;7.00;;;;;;;12.79;42.66;99706.47;5536899;32;33711;-87
2022/04/05 08:31:43;;;;;;;10.13;6.57;;;;;;;13.15;40.06;99698.69;5537082;32;32553;-88
2022/04/05 08:34:48;;;;;;;7.12;6.32;;;;;;;12.76;39.78;99704.03;5536256;32;33907;-88
2022/04/05 08:37:53;;;;;;;8.05;7.10;;;;;;;12.24;41.62;99708.47;5542528;32;34053;-89
2022/04/05 09:50:05;;;;;;;9.52;5.28;;;;;;;11.31;42.62;99675.47;3788308;27;20122;-92
2022/04/05 09:53:12;;;;;;;6.60;5.15;;;;;;;11.31;43.06;99675.47;5382017;33;33956;-90
2022/04/05 09:56:18;;;;;;;6.85;5.50;;;;;;;11.33;43.39;99677.09;5384424;33;33741;-87
2022/04/05 09:59:22;;;;;;;8.13;5.53;;;;;;;11.30;44.20;99682.59;5370887;33;33705;-87
2022/04/05 10:02:24;;;;;;;5.87;4.97;;;;;;;11.68;43.69;99681.06;5372996;33;33959;-87
2022/04/05 10:05:34;;;;;;;6.57;5.87;;;;;;;12.37;42.73;99681.91;5382461;33;35199;-86
2022/04/05 10:08:38;;;;;;;9.05;6.40;;;;;;;12.43;42.43;99689.47;5378137;33;34367;-87
2022/04/05 10:11:42;;;;;;;8.10;5.97;;;;;;;12.20;43.39;99686.56;5379152;33;34258;-87
2022/04/05 10:14:46;;;;;;;8.82;6.70;;;;;;;12.16;43.99;99679.75;5380367;33;34393;-89
2022/04/05 10:17:49;;;;;;;7.78;6.80;;;;;;;12.31;43.96;99690.31;5380317;33;33998;-88
2022/04/05 10:20:53;;;;;;;9.52;6.65;;;;;;;12.34;44.86;99693.59;5380083;33;33801;-87
2022/04/05 10:23:57;;;;;;;7.90;6.82;;;;;;;12.12;44.78;99687.06;5379783;33;34463;-87
2022/04/05 10:27:02;;;;;;;10.10;6.60;;;;;;;12.33;45.01;99683.06;5387422;33;34271;-86
2022/04/05 10:30:15;;;;;;;7.03;6.32;;;;;;;12.36;44.52;99689.03;5388442;33;35121;-83
2022/04/05 10:33:29;;;;;;;6.53;5.93;;;;;;;12.40;44.93;99685.22;5375820;33;33653;-83
2022/04/05 10:36:33;;;;;;;12.60;6.18;;;;;;;12.89;43.02;99689.88;5382168;33;34520;-83
2022/04/05 10:39:39;;;;;;;8.25;5.95;;;;;;;12.91;42.32;99683.47;5382942;33;33868;-83
2022/04/05 10:42:49;;;;;;;6.53;5.93;;;;;;;13.13;42.44;99679.28;5384276;33;34082;-81
2022/04/05 10:45:52;;;;;;;6.78;6.07;;;;;;;13.67;41.08;99695.87;5381186;33;34218;-83
2022/04/05 10:48:56;;;;;;;8.02;6.12;;;;;;;13.92;41.06;99691.38;5383752;33;33912;-84
2022/04/05 10:52:15;;;;;;;8.52;6.05;;;;;;;14.37;39.95;99685.34;5380480;33;34587;-84
2022/04/05 10:55:20;;;;;;;6.72;5.72;;;;;;;14.12;40.17;99675.69;5375639;33;33919;-84
2022/04/05 10:58:23;;;;;;;7.72;6.40;;;;;;;14.44;40.58;99672.41;5384256;33;34030;-85
2022/04/05 11:01:43;;;;;;;6.75;5.75;;;;;;;14.77;39.18;99673.41;5379352;33;34058;-85
2022/04/05 11:04:46;;;;;;;8.05;5.62;;;;;;;14.69;40.14;99673.16;5376187;33;33701;-89
2022/04/05 11:07:52;;;;;;;9.20;5.82;;;;;;;14.90;40.67;99680.47;5383700;33;34033;-89
2022/04/05 11:11:00;;;;;;;7.55;5.93;;;;;;;14.82;39.83;99679.25;5376482;33;34065;-90
2022/04/05 11:14:03;;;;;;;7.32;5.72;;;;;;;14.67;41.41;99680.41;5381622;33;34946;-83
2022/04/05 11:17:08;;;;;;;5.95;5.35;;;;;;;14.66;40.86;99684.91;5385552;33;33752;-84
2022/04/05 11:20:13;;;;;;;9.85;5.55;;;;;;;14.77;41.17;99675.22;5363794;33;34754;-83
2022/04/05 11:23:18;;;;;;;6.55;5.32;;;;;;;14.11;41.77;99674.00;5366729;33;36349;-85
2022/04/05 11:26:33;;;;;;;6.15;4.87;;;;;;;15.23;39.72;99676.06;5389721;33;34667;-85
2022/04/05 11:29:39;;;;;;;4.60;4.20;;;;;;;15.71;38.85;99663.31;5384831;33;34203;-85
2022/04/05 11:33:09;;;;;;;6.03;3.90;;;;;;;14.94;40.03;99684.59;5382603;33;36442;-89
2022/04/05 11:36:23;;;;;;;7.37;4.07;;;;;;;14.93;40.19;99681.06;5380676;33;34107;-88
2022/04/05 11:39:26;;;;;;;5.85;4.82;;;;;;;13.85;42.61;99695.47;5381419;33;35393;-90
2022/04/05 11:42:34;;;;;;;7.97;4.20;;;;;;;14.28;42.14;99683.38;5379754;33;34210;-88
2022/04/05 11:45:40;;;;;;;5.65;4.35;;;;;;;14.51;42.66;99691.44;5380648;33;34079;-90
2022/04/05 11:48:50;;;;;;;7.05;4.53;;;;;;;14.65;43.14;99682.34;5385090;33;34099;-89
2022/04/05 12:07:08;;;;;;;7.10;3.80;;;;;;;13.92;46.14;99710.03;3142722;27;20167;-90
2022/04/05 12:10:12;;;;;;;4.40;4.00;;;;;;;13.24;47.79;99713.16;5428529;27;34290;-89
2022/04/05 12:16:56;;;;;;;6.07;4.43;;;;;;;12.61;49.90;99705.09;5376434;33;20106;-86
2022/04/05 12:20:02;;;;;;;4.30;3.90;;;;;;;13.04;49.58;99698.59;5379089;33;34896;-87
2022/04/05 12:23:18;;;;;;;4.72;3.75;;;;;;;13.50;48.84;99706.91;5368950;33;33886;-87
2022/04/05 12:26:24;;;;;;;6.57;3.87;;;;;;;13.48;48.08;99696.37;5378656;33;34718;-86
2022/04/05 12:29:28;;;;;;;6.03;3.95;;;;;;;13.75;47.37;99690.81;5376928;33;34886;-88
2022/04/05 12:32:37;;;;;;;4.95;4.07;;;;;;;13.37;48.64;99675.81;5396286;33;33553;-87
2022/04/05 12:35:39;;;;;;;7.57;3.20;;;;;;;13.72;48.29;99672.41;5386653;33;34849;-87
2022/04/05 12:38:43;;;;;;;4.55;3.50;;;;;;;13.90;47.53;99661.34;5385045;33;32674;-88
2022/04/05 12:41:50;;;;;;;3.10;2.90;;;;;;;13.82;48.66;99663.69;5380979;33;34392;-88
2022/04/05 12:44:58;;;;;;;3.28;2.97;;;;;;;13.70;47.89;99668.16;5379808;33;33850;-88
2022/04/05 12:48:15;;;;;;;3.00;2.70;;;;;;;14.06;47.35;99674.34;5422681;27;34389;-88
2022/04/05 12:51:31;;;;;;;6.65;3.15;;;;;;;14.64;45.93;99670.00;5379195;33;33681;-86
2022/04/05 12:54:35;;;;;;;3.20;2.53;;;;;;;14.60;45.26;99658.69;5380978;33;34335;-87
2022/04/05 12:57:49;;;;;;;2.90;2.70;;;;;;;14.19;46.30;99668.09;5379619;33;34469;-88
2022/04/05 13:00:51;;;;;;;3.65;2.80;;;;;;;13.74;47.01;99664.31;5377891;33;34907;-87
2022/04/05 13:04:02;;;;;;;3.75;2.90;;;;;;;14.08;46.27;99652.91;5378376;33;34179;-87
2022/04/05 13:07:04;;;;;;;4.07;2.97;;;;;;;13.90;46.97;99660.47;5377412;33;34287;-87
2022/04/05 13:10:11;;;;;;;5.37;3.03;;;;;;;12.84;49.61;99655.59;5378489;33;33892;-88
2022/04/05 13:13:24;;;;;;;3.55;3.25;;;;;;;12.91;50.76;99656.88;5362002;33;34091;-89
2022/04/05 13:16:28;;;;;;;3.80;3.40;;;;;;;13.19;48.74;99646.88;5379339;33;34277;-90
2022/04/05 13:19:52;;;;;;;7.70;3.47;;;;;;;13.02;49.43;99663.25;5408825;27;34326;-88
2022/04/05 13:23:02;;;;;;;3.50;3.12;;;;;;;13.11;50.03;99659.91;5358018;33;33859;-89
2022/04/05 13:26:22;;;;;;;6.03;3.08;;;;;;;13.17;49.49;99646.16;5361040;33;34990;-89
2022/04/05 13:29:26;;;;;;;4.05;3.10;;;;;;;12.88;51.36;99661.56;5412700;27;34101;-87
2022/04/05 13:33:04;;;;;;;4.40;3.40;;;;;;;13.23;49.55;99644.84;5387287;33;33888;-88
2022/04/05 13:36:08;;;;;;;3.62;3.08;;;;;;;13.26;49.26;99649.97;5387890;33;34219;-88
2022/04/05 13:39:13;;;;;;;4.70;3.28;;;;;;;13.36;49.38;99646.62;5400784;27;33769;-88
2022/04/05 13:42:16;;;;;;;3.22;2.90;;;;;;;13.17;50.03;99646.16;5362560;33;33687;-87
2022/04/05 13:45:20;;;;;;;4.22;3.80;;;;;;;13.31;50.05;99653.16;5362465;33;35182;-86
2022/04/05 13:48:23;;;;;;;5.12;3.80;;;;;;;13.82;48.20;99650.37;5361714;33;33570;-87
2022/04/05 13:51:26;;;;;;;5.15;3.45;;;;;;;13.61;48.87;99654.56;5362294;33;33703;-88
2022/04/05 13:54:49;;;;;;;4.20;3.80;;;;;;;13.61;48.60;99643.87;5361620;33;33922;-88
2022/04/05 13:57:52;;;;;;;4.85;3.78;;;;;;;13.42;49.51;99633.69;5362071;33;34827;-87
2022/04/05 14:00:55;;;;;;;4.20;3.80;;;;;;;13.11;50.78;99633.28;5371122;33;35231;-87
2022/04/05 14:03:58;;;;;;;6.25;3.85;;;;;;;13.20;50.92;99627.31;5366176;33;33988;-88
2022/04/05 14:07:00;;;;;;;5.05;3.90;;;;;;;13.59;49.93;99631.66;5361419;33;35007;-89
2022/04/05 14:10:05;;;;;;;4.03;3.50;;;;;;;13.84;49.40;99629.81;5356134;33;33914;-92
2022/04/05 14:13:08;;;;;;;4.10;3.55;;;;;;;14.13;48.14;99632.06;5369795;33;34033;-90
2022/04/05 14:16:11;;;;;;;4.18;3.78;;;;;;;13.72;49.25;99623.56;5350268;33;35388;-87
2022/04/05 14:19:14;;;;;;;3.65;3.35;;;;;;;13.43;49.97;99619.41;5368223;33;33906;-88
2022/04/05 14:22:19;;;;;;;3.95;3.53;;;;;;;13.46;50.02;99621.91;5382945;33;34244;-88
2022/04/05 14:25:22;;;;;;;5.00;3.05;;;;;;;13.63;49.99;99611.78;5361764;33;34245;-89
2022/04/05 14:28:25;;;;;;;3.90;3.50;;;;;;;13.01;50.49;99605.63;5362859;33;34118;-88
2022/04/05 14:31:29;;;;;;;3.67;2.90;;;;;;;12.98;51.34;99611.19;5384239;33;34265;-89
2022/04/05 14:34:32;;;;;;;3.83;3.30;;;;;;;13.63;50.10;99606.44;5376937;33;34223;-88
2022/04/05 14:37:35;;;;;;;3.90;3.20;;;;;;;13.37;50.19;99613.72;5391206;33;34980;-89
2022/04/05 14:40:38;;;;;;;3.72;3.37;;;;;;;13.53;50.34;99619.59;5381065;33;34057;-89
2022/04/05 14:43:44;;;;;;;3.55;3.22;;;;;;;13.55;50.20;99619.50;5371474;33;34855;-89
2022/04/05 14:46:47;;;;;;;3.20;2.80;;;;;;;13.61;50.46;99622.56;5365303;33;34077;-88
2022/04/05 14:49:54;;;;;;;3.87;2.78;;;;;;;13.47;49.97;99614.75;5372525;33;34348;-90
2022/04/05 14:52:57;;;;;;;2.87;2.67;;;;;;;12.99;51.35;99613.72;5365159;33;33856;-88
2022/04/05 14:56:01;;;;;;;2.62;2.42;;;;;;;12.80;52.04;99604.41;5364867;33;34197;-88
2022/04/05 14:59:04;;;;;;;2.70;2.50;;;;;;;12.52;52.92;99616.12;5363319;33;34505;-89
2022/04/05 15:02:07;;;;;;;2.28;2.08;;;;;;;12.80;52.36;99603.53;5363893;33;33635;-89
2022/04/05 15:05:13;;;;;;;2.80;2.25;;;;;;;13.38;50.94;99610.91;5368914;33;33849;-88
2022/04/05 15:08:15;;;;;;;2.30;2.10;;;;;;;13.38;50.93;99620.72;5375168;33;33910;-88
2022/04/05 15:11:19;;;;;;;2.80;2.50;;;;;;;13.13;51.91;99617.19;5391582;33;34067;-88
2022/04/05 15:14:22;;;;;;;2.60;2.40;;;;;;;13.03;52.38;99631.16;5387334;33;34753;-88
2022/04/05 15:17:25;;;;;;;2.80;2.60;;;;;;;12.92;52.66;99623.09;5381220;33;34652;-88
2022/04/05 15:20:29;;;;;;;2.78;2.58;;;;;;;12.47;53.87;99629.75;5381304;33;34745;-88
